Terminal Aerodrome Forecast
Issued by NWS Brownsville, TX

Home | Current Version | Previous Version | Text Only | Print | Product List | Glossary On
Versions: 1 2 3 4 5 6 7 8 9 10 11 12 13 14 15 16 17 18
000
FTUS44 KBRO 231000 AAB
TAFHRL
TAF AMD
KHRL 231037Z 2311/2406 13010KT 3/4SM BR VV001
      TEMPO 2311/2314 1/4SM FG
     FM231530 25007KT P6SM SKC
     FM240000 16006KT P6SM SKC=

USA.gov is the U.S. government's official web portal to all federal, state and local government web resources and services.